createdAt,value
2018-08-11T00:00:31.394Z,21.79
2018-08-11T00:03:01.141Z,21.81
2018-08-11T00:05:30.938Z,21.87
2018-08-11T00:08:00.949Z,21.89
2018-08-11T00:10:30.709Z,21.76
2018-08-11T00:14:29.399Z,21.76
2018-08-11T00:16:59.392Z,21.77
2018-08-11T00:19:29.162Z,21.74
2018-08-11T00:21:58.923Z,21.68
2018-08-11T00:24:28.816Z,21.54
2018-08-11T00:26:58.673Z,21.49
2018-08-11T00:29:28.456Z,21.50
2018-08-11T00:32:01.692Z,21.54
2018-08-11T00:34:31.786Z,21.48
2018-08-11T00:37:03.346Z,21.48
2018-08-11T00:39:33.124Z,21.38
2018-08-11T00:42:03.031Z,21.36
2018-08-11T00:44:32.879Z,21.25
2018-08-11T00:47:03.027Z,21.28
2018-08-11T00:49:32.823Z,21.28
2018-08-11T00:52:02.832Z,21.31
2018-08-11T00:54:34.170Z,21.30
2018-08-11T00:57:04.223Z,21.49
2018-08-11T00:59:33.992Z,21.54
2018-08-11T01:02:04.000Z,21.60
2018-08-11T01:04:33.844Z,21.55
2018-08-11T01:07:03.563Z,21.51
2018-08-11T01:09:33.425Z,21.38
2018-08-11T01:12:03.220Z,21.32
2018-08-11T01:17:03.283Z,21.33
2018-08-11T01:19:33.986Z,21.22
2018-08-11T01:22:03.951Z,21.29
2018-08-11T01:24:33.741Z,21.26
2018-08-11T01:27:04.515Z,21.22
2018-08-11T01:29:35.284Z,21.24
2018-08-11T01:32:07.005Z,21.14
2018-08-11T01:34:38.086Z,21.11
2018-08-11T01:37:09.261Z,21.15
2018-08-11T01:39:39.077Z,21.13
2018-08-11T01:42:08.876Z,21.11
2018-08-11T01:44:42.114Z,21.08
2018-08-11T01:47:13.030Z,21.09
2018-08-11T01:49:43.804Z,21.05
2018-08-11T01:52:13.906Z,21.07
2018-08-11T01:54:44.221Z,21.16
2018-08-11T01:57:13.983Z,21.13
2018-08-11T01:59:43.825Z,21.12
2018-08-11T02:02:13.725Z,21.07
2018-08-11T02:04:43.519Z,21.09
2018-08-11T02:07:13.392Z,21.15
2018-08-11T02:09:43.243Z,21.18
2018-08-11T02:12:13.131Z,21.12
2018-08-11T02:14:42.947Z,21.13
2018-08-11T02:17:15.666Z,21.12
2018-08-11T02:19:48.217Z,21.09
2018-08-11T02:22:18.071Z,21.09
2018-08-11T02:24:48.094Z,21.02
2018-08-11T02:27:28.801Z,20.96
2018-08-11T02:29:58.567Z,20.87
2018-08-11T02:32:28.342Z,20.87
2018-08-11T02:34:58.266Z,20.86
2018-08-11T02:37:28.199Z,20.73
2018-08-11T02:39:58.021Z,20.76
2018-08-11T02:42:27.781Z,20.74
2018-08-11T02:45:01.435Z,20.73
2018-08-11T02:47:32.454Z,20.77
2018-08-11T02:50:03.257Z,20.62
2018-08-11T02:52:33.089Z,20.72
2018-08-11T02:55:02.810Z,20.71
2018-08-11T02:57:33.028Z,20.70
2018-08-11T03:00:02.937Z,20.74
2018-08-11T03:02:32.735Z,20.70
2018-08-11T03:05:02.634Z,20.70
2018-08-11T03:07:34.631Z,20.73
2018-08-11T03:10:04.559Z,20.69
2018-08-11T03:12:34.382Z,20.72
2018-08-11T03:15:04.122Z,20.74
2018-08-11T03:17:34.537Z,20.67
2018-08-11T03:20:04.538Z,20.58
2018-08-11T03:22:35.221Z,20.60
2018-08-11T03:25:05.687Z,20.65
2018-08-11T03:27:35.712Z,20.64
2018-08-11T03:30:05.842Z,20.66
2018-08-11T03:32:37.760Z,20.66
2018-08-11T03:35:07.953Z,20.68
2018-08-11T03:37:40.606Z,20.74
2018-08-11T03:40:12.240Z,20.77
2018-08-11T03:42:42.661Z,20.68
2018-08-11T03:45:16.981Z,20.75
2018-08-11T03:47:46.855Z,20.81
2018-08-11T03:50:17.709Z,20.89
2018-08-11T03:52:49.474Z,20.94
2018-08-11T03:55:19.561Z,21.07
2018-08-11T03:57:49.577Z,21.52
2018-08-11T04:00:19.231Z,21.58
2018-08-11T04:02:49.058Z,21.60
2018-08-11T04:05:19.165Z,22.65
2018-08-11T04:07:49.125Z,23.74
2018-08-11T04:10:18.850Z,24.45
2018-08-11T04:12:50.027Z,25.39
2018-08-11T04:15:20.044Z,25.58
2018-08-11T04:17:50.318Z,26.22
2018-08-11T04:20:20.351Z,25.97
2018-08-11T04:22:50.679Z,26.21
2018-08-11T04:25:20.618Z,25.99
2018-08-11T04:27:50.435Z,24.77
2018-08-11T04:30:20.559Z,24.79
2018-08-11T04:32:50.663Z,25.32
2018-08-11T04:35:21.727Z,26.16
2018-08-11T04:37:53.079Z,27.53
2018-08-11T04:40:23.361Z,27.57
2018-08-11T04:42:53.458Z,27.41
2018-08-11T04:45:24.632Z,26.27
2018-08-11T04:48:03.338Z,26.67
2018-08-11T04:50:33.873Z,25.85
2018-08-11T04:53:04.593Z,26.74
2018-08-11T04:55:34.373Z,27.71
2018-08-11T04:58:04.162Z,28.41
2018-08-11T05:00:34.909Z,29.02
2018-08-11T05:03:04.957Z,29.00
2018-08-11T05:05:34.655Z,29.35
2018-08-11T05:08:04.283Z,29.89
2018-08-11T05:10:34.003Z,28.91
2018-08-11T05:13:03.685Z,29.28
2018-08-11T05:15:33.555Z,29.75
2018-08-11T05:18:03.366Z,30.36
2018-08-11T05:20:34.160Z,29.93
2018-08-11T05:23:06.551Z,30.16
2018-08-11T05:25:36.231Z,29.78
2018-08-11T05:28:06.106Z,30.68
2018-08-11T05:30:36.133Z,31.57
2018-08-11T05:33:06.112Z,31.08
2018-08-11T05:35:37.754Z,30.42
2018-08-11T05:38:07.546Z,30.42
2018-08-11T05:40:37.815Z,31.37
2018-08-11T05:43:08.085Z,31.81
2018-08-11T05:45:38.009Z,31.68
2018-08-11T05:48:07.840Z,32.27
2018-08-11T05:50:38.701Z,31.93
2018-08-11T05:53:08.445Z,32.33
2018-08-11T05:55:40.151Z,32.19
2018-08-11T05:58:09.966Z,30.38
2018-08-11T06:00:41.191Z,30.60
2018-08-11T06:03:11.400Z,30.39
2018-08-11T06:05:41.099Z,29.61
2018-08-11T06:08:10.802Z,29.70
2018-08-11T06:10:40.663Z,29.95
2018-08-11T06:13:10.453Z,31.61
2018-08-11T06:15:40.650Z,31.45
2018-08-11T06:18:10.919Z,30.75
2018-08-11T06:20:41.342Z,30.30
2018-08-11T06:23:13.549Z,32.07
2018-08-11T06:25:43.944Z,33.71
2018-08-11T06:28:14.151Z,32.41
2018-08-11T06:30:44.133Z,31.90
2018-08-11T06:33:14.189Z,30.63
2018-08-11T06:35:44.446Z,31.49
2018-08-11T06:38:14.843Z,31.62
2018-08-11T06:40:46.330Z,32.27
2018-08-11T06:43:16.971Z,30.05
2018-08-11T06:45:47.267Z,30.30
2018-08-11T06:48:17.622Z,32.16
2018-08-11T06:50:52.094Z,32.50
2018-08-11T06:53:23.875Z,31.90
2018-08-11T06:55:56.405Z,30.98
2018-08-11T06:58:26.811Z,30.14
2018-08-11T07:00:56.992Z,30.30
2018-08-11T07:03:27.334Z,29.85
2018-08-11T07:05:59.411Z,29.29
2018-08-11T07:08:31.139Z,30.35
2018-08-11T07:11:01.453Z,30.42
2018-08-11T07:13:31.557Z,31.24
2018-08-11T07:16:01.620Z,30.23
2018-08-11T07:18:31.332Z,30.44
2018-08-11T07:21:01.398Z,30.55
2018-08-11T07:23:31.141Z,31.05
2018-08-11T07:26:00.932Z,31.47
2018-08-11T07:28:34.145Z,31.22
2018-08-11T07:31:05.036Z,30.00
2018-08-11T07:33:34.904Z,30.82
2018-08-11T07:36:04.725Z,31.47
2018-08-11T07:38:34.535Z,31.48
2018-08-11T07:41:04.750Z,30.24
2018-08-11T07:43:35.495Z,29.79
2018-08-11T07:46:07.120Z,29.37
2018-08-11T07:48:38.692Z,29.22
2018-08-11T07:51:09.438Z,28.76
2018-08-11T07:53:39.628Z,28.02
2018-08-11T07:56:09.985Z,27.28
2018-08-11T07:58:40.320Z,27.33
2018-08-11T08:01:11.106Z,27.05
2018-08-11T08:03:41.583Z,27.04
2018-08-11T08:06:11.515Z,26.98
2018-08-11T08:08:41.215Z,26.79
2018-08-11T08:11:10.966Z,27.02
2018-08-11T08:13:40.749Z,26.79
2018-08-11T08:16:10.559Z,26.84
2018-08-11T08:18:41.090Z,26.69
2018-08-11T08:21:10.958Z,26.52
2018-08-11T08:23:40.797Z,26.61
2018-08-11T08:26:10.744Z,26.66
2018-08-11T08:28:40.668Z,26.54
2018-08-11T08:31:11.282Z,26.44
2018-08-11T08:33:43.600Z,26.82
2018-08-11T08:36:13.457Z,26.98
2018-08-11T08:38:43.656Z,27.15
2018-08-11T08:41:14.109Z,27.08
2018-08-11T08:43:45.742Z,27.09
2018-08-11T08:46:16.007Z,26.83
2018-08-11T08:48:46.366Z,26.92
2018-08-11T08:51:17.331Z,26.91
2018-08-11T08:53:48.175Z,26.84
2018-08-11T08:56:18.709Z,26.94
2018-08-11T08:58:53.142Z,26.54
2018-08-11T09:01:23.391Z,26.71
2018-08-11T09:03:54.537Z,27.03
2018-08-11T09:06:26.537Z,27.40
2018-08-11T09:08:56.857Z,27.31
2018-08-11T09:11:28.070Z,27.45
2018-08-11T09:13:58.566Z,27.72
2018-08-11T09:16:28.905Z,27.17
2018-08-11T09:18:59.157Z,27.40
2018-08-11T09:21:39.374Z,27.34
2018-08-11T09:24:18.485Z,27.30
2018-08-11T09:26:48.144Z,27.29
2018-08-11T09:29:17.953Z,27.33
2018-08-11T09:31:47.760Z,27.21
2018-08-11T09:34:17.439Z,27.30
2018-08-11T09:36:47.282Z,27.34
2018-08-11T09:39:17.013Z,27.35
2018-08-11T09:41:47.083Z,27.06
2018-08-11T09:44:16.855Z,26.81
2018-08-11T09:46:46.556Z,27.13
2018-08-11T09:49:16.423Z,27.03
2018-08-11T09:51:46.290Z,27.28
2018-08-11T09:54:19.920Z,27.16
2018-08-11T09:56:50.739Z,26.87
2018-08-11T09:59:20.432Z,26.97
2018-08-11T10:01:55.789Z,27.16
2018-08-11T10:04:25.554Z,27.20
2018-08-11T10:06:56.184Z,27.24
2018-08-11T10:09:26.472Z,27.43
2018-08-11T10:11:56.246Z,27.53
2018-08-11T10:14:26.117Z,27.20
2018-08-11T10:16:55.952Z,27.08
2018-08-11T10:19:27.507Z,27.08
2018-08-11T10:21:57.255Z,27.06
2018-08-11T10:24:26.966Z,27.04
2018-08-11T10:26:57.316Z,27.20
2018-08-11T10:29:31.782Z,26.96
2018-08-11T10:32:01.528Z,26.91
2018-08-11T10:34:31.953Z,26.91
2018-08-11T10:37:01.777Z,27.12
2018-08-11T10:39:31.672Z,27.23
2018-08-11T10:42:01.617Z,27.31
2018-08-11T10:44:31.315Z,27.39
2018-08-11T10:47:01.755Z,27.39
2018-08-11T10:49:34.711Z,27.17
2018-08-11T10:52:04.713Z,26.86
2018-08-11T10:54:34.485Z,26.70
2018-08-11T10:57:05.786Z,26.82
2018-08-11T10:59:35.690Z,27.02
2018-08-11T11:02:08.953Z,27.11
2018-08-11T11:04:41.210Z,27.14
2018-08-11T11:07:11.355Z,27.17
2018-08-11T11:10:00.226Z,27.11
2018-08-11T11:12:30.119Z,27.37
2018-08-11T11:14:59.859Z,27.24
2018-08-11T11:17:30.000Z,27.29
2018-08-11T11:20:00.114Z,27.20
2018-08-11T11:22:29.969Z,27.34
2018-08-11T11:24:59.818Z,27.36
2018-08-11T11:27:29.459Z,27.38
2018-08-11T11:30:00.213Z,27.37
2018-08-11T11:32:29.967Z,27.21
2018-08-11T11:35:00.195Z,27.26
2018-08-11T11:37:30.970Z,27.27
2018-08-11T11:40:00.853Z,27.52
2018-08-11T11:42:30.510Z,27.49
2018-08-11T11:45:00.214Z,27.60
2018-08-11T11:47:29.981Z,27.46
2018-08-11T11:50:00.724Z,27.36
2018-08-11T11:52:30.742Z,27.42
2018-08-11T11:55:00.622Z,27.35
2018-08-11T11:57:30.332Z,27.12
2018-08-11T12:00:00.176Z,27.18
2018-08-11T12:02:31.676Z,27.01
2018-08-11T12:05:02.397Z,27.12
2018-08-11T12:07:32.275Z,27.18
2018-08-11T12:10:02.168Z,27.17
2018-08-11T12:12:33.769Z,27.23
2018-08-11T12:15:05.114Z,27.41
2018-08-11T12:17:34.887Z,27.30
2018-08-11T12:20:05.733Z,27.27
2018-08-11T12:22:36.392Z,27.11
2018-08-11T12:25:06.905Z,27.26
2018-08-11T12:27:37.017Z,27.21
2018-08-11T12:30:10.391Z,27.24
2018-08-11T12:32:41.766Z,27.20
2018-08-11T12:35:11.580Z,27.04
2018-08-11T12:37:43.018Z,26.65
2018-08-11T12:40:12.791Z,26.66
2018-08-11T12:42:42.575Z,26.60
2018-08-11T12:45:13.328Z,26.66
2018-08-11T12:50:19.801Z,26.69
2018-08-11T12:52:51.855Z,26.67
2018-08-11T12:55:22.550Z,26.59
2018-08-11T12:57:52.336Z,26.66
2018-08-11T13:00:22.820Z,26.83
2018-08-11T13:02:52.639Z,26.75
2018-08-11T13:05:22.478Z,26.89
2018-08-11T13:07:52.289Z,26.84
2018-08-11T13:10:22.170Z,26.81
2018-08-11T13:12:51.956Z,26.79
2018-08-11T13:15:23.204Z,26.79
2018-08-11T13:17:53.041Z,26.65
2018-08-11T13:20:22.844Z,26.69
2018-08-11T13:22:52.869Z,26.61
2018-08-11T13:25:22.704Z,26.55
2018-08-11T13:27:52.325Z,26.54
2018-08-11T13:30:22.043Z,26.61
2018-08-11T13:32:51.780Z,26.66
2018-08-11T13:35:23.359Z,26.33
2018-08-11T13:37:53.317Z,26.14
2018-08-11T13:40:23.148Z,26.20
2018-08-11T13:42:52.994Z,26.24
2018-08-11T13:45:22.902Z,26.28
2018-08-11T13:47:53.180Z,26.29
2018-08-11T13:50:25.626Z,26.16
2018-08-11T13:52:55.576Z,26.33
2018-08-11T13:55:25.428Z,26.38
2018-08-11T13:57:55.361Z,26.02
2018-08-11T14:00:29.268Z,26.15
2018-08-11T14:02:59.960Z,26.10
2018-08-11T14:05:31.271Z,26.14
2018-08-11T14:08:01.305Z,26.11
2018-08-11T14:10:31.825Z,26.18
2018-08-11T14:13:03.882Z,26.21
2018-08-11T14:15:33.755Z,26.16
2018-08-11T14:18:06.502Z,26.25
2018-08-11T14:20:38.460Z,26.23
2018-08-11T14:23:09.375Z,26.05
2018-08-11T14:25:39.555Z,26.14
2018-08-11T14:28:09.890Z,26.13
2018-08-11T14:30:40.117Z,26.19
2018-08-11T14:33:10.275Z,26.18
2018-08-11T14:35:41.505Z,26.29
2018-08-11T14:38:12.499Z,26.26
2018-08-11T14:40:43.628Z,26.07
2018-08-11T14:43:13.985Z,25.95
2018-08-11T14:45:45.396Z,25.97
2018-08-11T14:48:15.514Z,26.01
2018-08-11T14:50:45.905Z,25.87
2018-08-11T14:53:16.228Z,25.88
2018-08-11T14:55:47.243Z,25.82
2018-08-11T14:58:17.551Z,25.77
2018-08-11T15:00:47.724Z,25.79
2018-08-11T15:03:17.908Z,25.77
2018-08-11T15:05:49.399Z,25.68
2018-08-11T15:08:19.603Z,25.69
2018-08-11T15:10:49.873Z,25.72
2018-08-11T15:13:19.930Z,25.64
2018-08-11T15:15:50.458Z,25.82
2018-08-11T15:18:20.568Z,25.78
2018-08-11T15:20:51.004Z,25.66
2018-08-11T15:23:21.435Z,25.66
2018-08-11T15:25:51.715Z,25.66
2018-08-11T15:28:22.841Z,25.60
2018-08-11T15:30:54.171Z,25.65
2018-08-11T15:33:24.503Z,25.63
2018-08-11T15:35:54.587Z,25.68
2018-08-11T15:38:25.208Z,25.55
2018-08-11T15:40:55.232Z,25.48
2018-08-11T15:43:25.526Z,25.42
2018-08-11T15:45:55.573Z,25.44
2018-08-11T15:48:26.896Z,25.28
2018-08-11T15:51:02.937Z,25.20
2018-08-11T15:53:33.382Z,25.27
2018-08-11T15:56:04.216Z,25.25
2018-08-11T15:58:42.297Z,25.23
2018-08-11T16:01:17.465Z,25.18
2018-08-11T16:03:49.685Z,25.02
2018-08-11T16:06:21.130Z,24.98
2018-08-11T16:08:51.968Z,24.88
2018-08-11T16:11:22.901Z,24.87
2018-08-11T16:13:52.834Z,24.79
2018-08-11T16:16:27.092Z,24.77
2018-08-11T16:19:03.556Z,24.81
2018-08-11T16:21:33.429Z,24.72
2018-08-11T16:24:04.220Z,24.72
2018-08-11T16:26:44.958Z,24.76
2018-08-11T16:29:15.853Z,24.60
2018-08-11T16:34:20.613Z,24.67
2018-08-11T16:36:50.475Z,24.50
2018-08-11T16:39:20.504Z,24.35
2018-08-11T16:41:50.363Z,24.44
2018-08-11T16:44:40.883Z,24.40
2018-08-11T16:47:17.958Z,24.43
2018-08-11T16:49:49.244Z,24.31
2018-08-11T16:52:21.096Z,24.33
2018-08-11T16:54:50.844Z,24.26
2018-08-11T16:57:20.678Z,24.20
2018-08-11T16:59:50.957Z,24.21
2018-08-11T17:02:20.858Z,24.19
2018-08-11T17:04:50.742Z,24.18
2018-08-11T17:07:20.688Z,24.14
2018-08-11T17:09:50.669Z,24.11
2018-08-11T17:12:20.911Z,24.01
2018-08-11T17:14:51.429Z,23.96
2018-08-11T17:17:21.252Z,23.88
2018-08-11T17:19:50.992Z,23.83
2018-08-11T17:22:21.448Z,23.71
2018-08-11T17:24:51.168Z,23.73
2018-08-11T17:27:21.022Z,23.68
2018-08-11T17:29:50.995Z,23.69
2018-08-11T17:32:20.911Z,23.68
2018-08-11T17:34:50.714Z,23.70
2018-08-11T17:37:21.138Z,23.63
2018-08-11T17:39:50.882Z,23.60
2018-08-11T17:42:20.671Z,23.58
2018-08-11T17:44:50.427Z,23.59
2018-08-11T17:47:20.176Z,23.56
2018-08-11T17:49:49.981Z,23.52
2018-08-11T17:52:19.757Z,23.49
2018-08-11T17:54:49.550Z,23.53
2018-08-11T17:57:20.105Z,23.53
2018-08-11T17:59:49.800Z,23.47
2018-08-11T18:02:21.305Z,23.41
2018-08-11T18:04:52.244Z,23.39
2018-08-11T18:07:22.070Z,23.46
2018-08-11T18:09:52.319Z,23.46
2018-08-11T18:12:22.765Z,23.42
2018-08-11T18:14:52.594Z,23.34
2018-08-11T18:17:22.461Z,23.28
2018-08-11T18:19:53.399Z,23.25
2018-08-11T18:22:23.149Z,23.25
2018-08-11T18:24:53.811Z,23.07
2018-08-11T18:27:23.780Z,23.06
2018-08-11T18:29:53.986Z,23.12
2018-08-11T18:32:23.782Z,23.00
2018-08-11T18:34:53.574Z,22.96
2018-08-11T18:37:23.833Z,22.84
2018-08-11T18:39:53.553Z,22.73
2018-08-11T18:42:24.152Z,22.62
2018-08-11T18:44:53.955Z,22.55
2018-08-11T18:47:23.935Z,22.42
2018-08-11T18:49:53.799Z,22.40
2018-08-11T18:52:24.182Z,22.44
2018-08-11T18:54:54.231Z,22.42
2018-08-11T18:57:24.872Z,22.37
2018-08-11T18:59:56.679Z,22.32
2018-08-11T19:02:26.761Z,22.33
2018-08-11T19:04:57.996Z,22.27
2018-08-11T19:07:27.831Z,22.19
2018-08-11T19:09:58.521Z,22.16
2018-08-11T19:12:28.413Z,22.11
2018-08-11T19:14:59.074Z,22.11
2018-08-11T19:17:28.950Z,22.05
2018-08-11T19:20:02.174Z,21.99
2018-08-11T19:22:32.027Z,21.98
2018-08-11T19:25:04.900Z,22.01
2018-08-11T19:27:37.679Z,22.04
2018-08-11T19:30:10.538Z,22.00
2018-08-11T19:32:41.029Z,21.99
2018-08-11T19:35:13.464Z,21.99
2018-08-11T19:37:44.240Z,22.00
2018-08-11T19:40:14.077Z,21.99
2018-08-11T19:42:44.542Z,21.92
2018-08-11T19:45:14.285Z,21.93
2018-08-11T19:47:44.145Z,21.98
2018-08-11T19:50:14.234Z,21.97
2018-08-11T19:52:44.859Z,21.97
2018-08-11T19:55:17.940Z,21.95
2018-08-11T19:57:51.080Z,21.95
2018-08-11T20:00:21.013Z,21.98
2018-08-11T20:02:52.878Z,21.93
2018-08-11T20:05:23.569Z,21.97
2018-08-11T20:07:56.088Z,21.99
2018-08-11T20:10:28.239Z,21.97
2018-08-11T20:12:57.975Z,21.92
2018-08-11T20:15:27.794Z,21.91
2018-08-11T20:17:57.591Z,21.84
2018-08-11T20:20:28.063Z,21.80
2018-08-11T20:22:59.772Z,21.81
2018-08-11T20:25:32.376Z,21.80
2018-08-11T20:28:02.969Z,21.87
2018-08-11T20:30:34.817Z,21.88
2018-08-11T20:33:07.845Z,21.86
2018-08-11T20:35:37.665Z,21.87
2018-08-11T20:38:10.997Z,21.92
2018-08-11T20:40:40.901Z,21.92
2018-08-11T20:43:11.942Z,21.94
2018-08-11T20:45:43.193Z,21.87
2018-08-11T20:48:15.887Z,21.84
2018-08-11T20:50:45.671Z,21.83
2018-08-11T20:53:15.508Z,21.81
2018-08-11T20:55:45.783Z,21.83
2018-08-11T20:58:15.765Z,21.90
2018-08-11T21:00:46.007Z,21.88
2018-08-11T21:03:15.796Z,21.80
2018-08-11T21:05:46.785Z,21.82
2018-08-11T21:08:17.516Z,21.77
2018-08-11T21:10:47.311Z,21.67
2018-08-11T21:13:17.036Z,21.66
2018-08-11T21:15:46.830Z,21.70
2018-08-11T21:18:16.677Z,21.68
2018-08-11T21:20:46.476Z,21.71
2018-08-11T21:23:16.412Z,21.61
2018-08-11T21:25:46.374Z,21.58
2018-08-11T21:28:16.601Z,21.55
2018-08-11T21:30:46.651Z,21.51
2018-08-11T21:33:16.521Z,21.55
2018-08-11T21:35:46.387Z,21.56
2018-08-11T21:38:16.214Z,21.48
2018-08-11T21:40:47.494Z,21.50
2018-08-11T21:43:17.469Z,21.44
2018-08-11T21:45:47.209Z,21.53
2018-08-11T21:48:17.018Z,21.45
2018-08-11T21:50:46.715Z,21.42
2018-08-11T21:53:17.951Z,21.22
2018-08-11T21:55:47.670Z,21.21
2018-08-11T21:58:17.451Z,21.24
2018-08-11T22:00:59.638Z,21.22
2018-08-11T22:03:31.118Z,21.29
2018-08-11T22:06:08.661Z,21.30
2018-08-11T22:08:38.715Z,21.25
2018-08-11T22:11:08.617Z,21.30
2018-08-11T22:13:39.508Z,21.26
2018-08-11T22:16:10.518Z,21.12
2018-08-11T22:18:40.148Z,21.18
2018-08-11T22:21:09.968Z,21.10
2018-08-11T22:23:39.699Z,21.03
2018-08-11T22:26:09.627Z,20.94
2018-08-11T22:28:41.622Z,20.91
2018-08-11T22:31:11.531Z,20.86
2018-08-11T22:33:42.199Z,20.83
2018-08-11T22:36:12.657Z,20.78
2018-08-11T22:38:43.746Z,20.75
2018-08-11T22:41:13.451Z,20.79
2018-08-11T22:43:43.185Z,20.94
2018-08-11T22:46:13.056Z,20.99
2018-08-11T22:48:43.161Z,20.97
2018-08-11T22:51:12.964Z,20.98
2018-08-11T22:53:44.061Z,21.02
2018-08-11T22:56:14.132Z,20.89
2018-08-11T22:58:44.842Z,20.79
2018-08-11T23:01:14.805Z,20.76
2018-08-11T23:03:53.165Z,20.83
2018-08-11T23:06:23.308Z,20.86
2018-08-11T23:08:54.685Z,20.84
2018-08-11T23:11:24.569Z,20.88
2018-08-11T23:13:57.230Z,20.79
2018-08-11T23:16:27.526Z,20.66
2018-08-11T23:18:58.583Z,20.62
2018-08-11T23:21:28.296Z,20.65
2018-08-11T23:23:58.081Z,20.73
2018-08-11T23:26:27.915Z,20.70
2018-08-11T23:28:57.629Z,20.55
2018-08-11T23:31:27.365Z,20.51
2018-08-11T23:33:57.028Z,20.50
2018-08-11T23:36:26.765Z,20.52
2018-08-11T23:38:56.483Z,20.59
2018-08-11T23:41:26.288Z,20.61
2018-08-11T23:43:56.185Z,20.65
2018-08-11T23:46:25.883Z,20.61
2018-08-11T23:48:55.903Z,20.65
2018-08-11T23:51:25.834Z,20.57
2018-08-11T23:53:56.467Z,20.53
2018-08-11T23:56:26.188Z,20.40
2018-08-11T23:58:55.931Z,20.34
